sensor_id;sensor_type;location;lat;lon;timestamp;P1;durP1;ratioP1;P2;durP2;ratioP2
14603;SDS011;7388;51.078;13.740;2023-04-25T00:02:12;3.20;;;2.90;;
14603;SDS011;7388;51.078;13.740;2023-04-25T00:04:38;4.72;;;3.58;;
14603;SDS011;7388;51.078;13.740;2023-04-25T00:07:04;5.10;;;3.50;;
14603;SDS011;7388;51.078;13.740;2023-04-25T00:09:29;3.73;;;3.43;;
14603;SDS011;7388;51.078;13.740;2023-04-25T00:11:55;3.63;;;3.33;;
14603;SDS011;7388;51.078;13.740;2023-04-25T00:14:21;4.17;;;3.20;;
14603;SDS011;7388;51.078;13.740;2023-04-25T00:16:48;4.70;;;3.92;;
14603;SDS011;7388;51.078;13.740;2023-04-25T00:19:13;6.60;;;4.13;;
14603;SDS011;7388;51.078;13.740;2023-04-25T00:21:39;4.30;;;3.47;;
14603;SDS011;7388;51.078;13.740;2023-04-25T00:24:06;6.37;;;3.70;;
14603;SDS011;7388;51.078;13.740;2023-04-25T00:26:33;5.50;;;3.95;;
14603;SDS011;7388;51.078;13.740;2023-04-25T00:29:00;5.57;;;3.88;;
14603;SDS011;7388;51.078;13.740;2023-04-25T00:31:27;6.93;;;4.10;;
14603;SDS011;7388;51.078;13.740;2023-04-25T00:33:54;3.88;;;3.38;;
14603;SDS011;7388;51.078;13.740;2023-04-25T00:36:19;3.63;;;3.23;;
14603;SDS011;7388;51.078;13.740;2023-04-25T00:38:45;5.70;;;3.77;;
14603;SDS011;7388;51.078;13.740;2023-04-25T00:41:11;3.77;;;3.37;;
14603;SDS011;7388;51.078;13.740;2023-04-25T00:43:37;3.72;;;3.33;;
14603;SDS011;7388;51.078;13.740;2023-04-25T00:46:04;4.47;;;3.72;;
14603;SDS011;7388;51.078;13.740;2023-04-25T00:48:30;5.40;;;4.27;;
14603;SDS011;7388;51.078;13.740;2023-04-25T00:50:59;5.33;;;3.80;;
14603;SDS011;7388;51.078;13.740;2023-04-25T00:53:26;4.15;;;3.75;;
14603;SDS011;7388;51.078;13.740;2023-04-25T00:55:53;4.45;;;3.95;;
14603;SDS011;7388;51.078;13.740;2023-04-25T00:58:20;10.07;;;6.43;;
14603;SDS011;7388;51.078;13.740;2023-04-25T01:00:46;7.00;;;4.05;;
14603;SDS011;7388;51.078;13.740;2023-04-25T01:03:14;4.90;;;3.90;;
14603;SDS011;7388;51.078;13.740;2023-04-25T01:05:41;5.93;;;4.90;;
14603;SDS011;7388;51.078;13.740;2023-04-25T01:08:07;4.85;;;3.65;;
14603;SDS011;7388;51.078;13.740;2023-04-25T01:10:33;6.40;;;4.45;;
14603;SDS011;7388;51.078;13.740;2023-04-25T01:12:59;4.43;;;4.03;;
14603;SDS011;7388;51.078;13.740;2023-04-25T01:15:25;5.30;;;4.73;;
14603;SDS011;7388;51.078;13.740;2023-04-25T01:17:50;4.53;;;4.03;;
14603;SDS011;7388;51.078;13.740;2023-04-25T01:20:18;6.72;;;4.00;;
14603;SDS011;7388;51.078;13.740;2023-04-25T01:22:46;6.40;;;4.07;;
14603;SDS011;7388;51.078;13.740;2023-04-25T01:25:12;7.00;;;5.63;;
14603;SDS011;7388;51.078;13.740;2023-04-25T01:27:38;5.47;;;4.07;;
14603;SDS011;7388;51.078;13.740;2023-04-25T01:30:04;5.82;;;4.50;;
14603;SDS011;7388;51.078;13.740;2023-04-25T01:32:31;5.85;;;4.22;;
14603;SDS011;7388;51.078;13.740;2023-04-25T01:35:04;7.10;;;4.65;;
14603;SDS011;7388;51.078;13.740;2023-04-25T01:37:35;6.13;;;4.20;;
14603;SDS011;7388;51.078;13.740;2023-04-25T01:40:05;7.18;;;3.95;;
14603;SDS011;7388;51.078;13.740;2023-04-25T01:42:32;4.22;;;3.80;;
14603;SDS011;7388;51.078;13.740;2023-04-25T01:44:59;6.25;;;5.25;;
14603;SDS011;7388;51.078;13.740;2023-04-25T01:47:24;4.63;;;4.07;;
14603;SDS011;7388;51.078;13.740;2023-04-25T01:49:50;5.67;;;4.67;;
14603;SDS011;7388;51.078;13.740;2023-04-25T01:52:16;5.70;;;5.20;;
14603;SDS011;7388;51.078;13.740;2023-04-25T01:54:42;6.13;;;4.97;;
14603;SDS011;7388;51.078;13.740;2023-04-25T01:57:10;7.45;;;4.78;;
14603;SDS011;7388;51.078;13.740;2023-04-25T01:59:36;7.72;;;4.85;;
14603;SDS011;7388;51.078;13.740;2023-04-25T02:02:02;5.85;;;4.65;;
14603;SDS011;7388;51.078;13.740;2023-04-25T02:04:30;5.97;;;5.32;;
14603;SDS011;7388;51.078;13.740;2023-04-25T02:09:56;7.30;;;4.60;;
14603;SDS011;7388;51.078;13.740;2023-04-25T02:12:22;6.70;;;5.37;;
14603;SDS011;7388;51.078;13.740;2023-04-25T02:14:48;13.30;;;5.73;;
14603;SDS011;7388;51.078;13.740;2023-04-25T02:17:14;10.97;;;5.73;;
14603;SDS011;7388;51.078;13.740;2023-04-25T02:19:39;7.43;;;5.30;;
14603;SDS011;7388;51.078;13.740;2023-04-25T02:22:05;5.20;;;4.60;;
14603;SDS011;7388;51.078;13.740;2023-04-25T02:24:31;4.93;;;4.43;;
14603;SDS011;7388;51.078;13.740;2023-04-25T02:26:58;10.02;;;5.07;;
14603;SDS011;7388;51.078;13.740;2023-04-25T02:29:24;7.63;;;5.43;;
14603;SDS011;7388;51.078;13.740;2023-04-25T02:31:50;5.20;;;4.60;;
14603;SDS011;7388;51.078;13.740;2023-04-25T02:34:15;6.27;;;5.13;;
14603;SDS011;7388;51.078;13.740;2023-04-25T02:36:41;6.30;;;5.33;;
14603;SDS011;7388;51.078;13.740;2023-04-25T02:39:07;7.00;;;5.00;;
14603;SDS011;7388;51.078;13.740;2023-04-25T02:41:32;7.43;;;5.70;;
14603;SDS011;7388;51.078;13.740;2023-04-25T02:43:58;7.37;;;5.10;;
14603;SDS011;7388;51.078;13.740;2023-04-25T02:46:24;6.47;;;4.50;;
14603;SDS011;7388;51.078;13.740;2023-04-25T02:48:50;6.57;;;5.43;;
14603;SDS011;7388;51.078;13.740;2023-04-25T02:51:15;6.97;;;5.57;;
14603;SDS011;7388;51.078;13.740;2023-04-25T02:53:41;6.40;;;5.00;;
14603;SDS011;7388;51.078;13.740;2023-04-25T02:56:07;6.37;;;4.57;;
14603;SDS011;7388;51.078;13.740;2023-04-25T02:58:33;6.93;;;6.23;;
14603;SDS011;7388;51.078;13.740;2023-04-25T03:00:58;8.80;;;5.50;;
14603;SDS011;7388;51.078;13.740;2023-04-25T03:03:24;8.83;;;5.90;;
14603;SDS011;7388;51.078;13.740;2023-04-25T03:05:50;6.83;;;5.30;;
14603;SDS011;7388;51.078;13.740;2023-04-25T03:08:16;10.23;;;5.30;;
14603;SDS011;7388;51.078;13.740;2023-04-25T03:10:43;8.52;;;5.15;;
14603;SDS011;7388;51.078;13.740;2023-04-25T03:13:09;7.32;;;5.30;;
14603;SDS011;7388;51.078;13.740;2023-04-25T03:15:35;7.57;;;6.23;;
14603;SDS011;7388;51.078;13.740;2023-04-25T03:18:01;10.02;;;5.43;;
14603;SDS011;7388;51.078;13.740;2023-04-25T03:20:27;8.40;;;5.93;;
14603;SDS011;7388;51.078;13.740;2023-04-25T03:22:53;9.10;;;6.30;;
14603;SDS011;7388;51.078;13.740;2023-04-25T03:25:19;8.13;;;5.83;;
14603;SDS011;7388;51.078;13.740;2023-04-25T03:27:45;6.47;;;5.30;;
14603;SDS011;7388;51.078;13.740;2023-04-25T03:30:11;7.63;;;5.90;;
14603;SDS011;7388;51.078;13.740;2023-04-25T03:32:37;5.88;;;4.95;;
14603;SDS011;7388;51.078;13.740;2023-04-25T03:35:03;12.00;;;6.40;;
14603;SDS011;7388;51.078;13.740;2023-04-25T03:37:29;9.38;;;6.00;;
14603;SDS011;7388;51.078;13.740;2023-04-25T03:39:55;11.10;;;6.00;;
14603;SDS011;7388;51.078;13.740;2023-04-25T03:42:20;8.40;;;6.67;;
14603;SDS011;7388;51.078;13.740;2023-04-25T03:44:48;7.28;;;5.53;;
14603;SDS011;7388;51.078;13.740;2023-04-25T03:47:14;6.60;;;5.88;;
14603;SDS011;7388;51.078;13.740;2023-04-25T03:49:40;10.82;;;6.80;;
14603;SDS011;7388;51.078;13.740;2023-04-25T03:52:06;7.17;;;5.20;;
14603;SDS011;7388;51.078;13.740;2023-04-25T03:54:32;6.97;;;6.13;;
14603;SDS011;7388;51.078;13.740;2023-04-25T03:56:58;9.27;;;5.70;;
14603;SDS011;7388;51.078;13.740;2023-04-25T03:59:23;6.87;;;5.40;;
14603;SDS011;7388;51.078;13.740;2023-04-25T04:01:51;8.48;;;7.25;;
14603;SDS011;7388;51.078;13.740;2023-04-25T04:04:17;8.57;;;6.82;;
14603;SDS011;7388;51.078;13.740;2023-04-25T04:06:43;8.35;;;5.60;;
14603;SDS011;7388;51.078;13.740;2023-04-25T04:09:09;8.33;;;5.77;;
14603;SDS011;7388;51.078;13.740;2023-04-25T04:11:36;9.65;;;6.32;;
14603;SDS011;7388;51.078;13.740;2023-04-25T04:14:04;7.63;;;6.07;;
14603;SDS011;7388;51.078;13.740;2023-04-25T04:16:30;6.75;;;6.05;;
14603;SDS011;7388;51.078;13.740;2023-04-25T04:18:56;7.23;;;6.50;;
14603;SDS011;7388;51.078;13.740;2023-04-25T04:21:22;13.37;;;6.00;;
14603;SDS011;7388;51.078;13.740;2023-04-25T04:23:47;11.13;;;6.93;;
14603;SDS011;7388;51.078;13.740;2023-04-25T04:26:13;8.60;;;6.47;;
14603;SDS011;7388;51.078;13.740;2023-04-25T04:28:41;15.90;;;6.72;;
14603;SDS011;7388;51.078;13.740;2023-04-25T04:31:08;7.97;;;6.60;;
14603;SDS011;7388;51.078;13.740;2023-04-25T04:33:35;15.10;;;6.63;;
14603;SDS011;7388;51.078;13.740;2023-04-25T04:36:01;9.65;;;6.20;;
14603;SDS011;7388;51.078;13.740;2023-04-25T04:38:28;12.75;;;6.80;;
14603;SDS011;7388;51.078;13.740;2023-04-25T04:40:55;7.35;;;6.50;;
14603;SDS011;7388;51.078;13.740;2023-04-25T04:43:21;8.63;;;7.13;;
14603;SDS011;7388;51.078;13.740;2023-04-25T04:45:48;10.20;;;5.93;;
14603;SDS011;7388;51.078;13.740;2023-04-25T04:48:15;15.02;;;6.85;;
14603;SDS011;7388;51.078;13.740;2023-04-25T04:50:45;6.60;;;5.75;;
14603;SDS011;7388;51.078;13.740;2023-04-25T04:53:11;13.43;;;6.82;;
14603;SDS011;7388;51.078;13.740;2023-04-25T04:55:37;7.60;;;5.20;;
14603;SDS011;7388;51.078;13.740;2023-04-25T04:58:03;8.93;;;6.03;;
14603;SDS011;7388;51.078;13.740;2023-04-25T05:00:28;9.87;;;6.80;;
14603;SDS011;7388;51.078;13.740;2023-04-25T05:02:55;15.00;;;6.80;;
14603;SDS011;7388;51.078;13.740;2023-04-25T05:05:21;8.90;;;6.55;;
14603;SDS011;7388;51.078;13.740;2023-04-25T05:07:47;9.20;;;6.17;;
14603;SDS011;7388;51.078;13.740;2023-04-25T05:10:13;6.70;;;5.80;;
14603;SDS011;7388;51.078;13.740;2023-04-25T05:12:38;10.27;;;6.27;;
14603;SDS011;7388;51.078;13.740;2023-04-25T05:15:04;10.30;;;6.43;;
14603;SDS011;7388;51.078;13.740;2023-04-25T05:17:31;9.38;;;6.18;;
14603;SDS011;7388;51.078;13.740;2023-04-25T05:19:57;13.10;;;7.45;;
14603;SDS011;7388;51.078;13.740;2023-04-25T05:22:23;8.13;;;6.57;;
14603;SDS011;7388;51.078;13.740;2023-04-25T05:24:49;8.40;;;7.07;;
14603;SDS011;7388;51.078;13.740;2023-04-25T05:27:17;11.50;;;8.00;;
14603;SDS011;7388;51.078;13.740;2023-04-25T05:29:43;8.68;;;5.43;;
14603;SDS011;7388;51.078;13.740;2023-04-25T05:32:09;9.00;;;5.60;;
14603;SDS011;7388;51.078;13.740;2023-04-25T05:34:35;11.27;;;5.90;;
14603;SDS011;7388;51.078;13.740;2023-04-25T05:37:01;9.40;;;6.72;;
14603;SDS011;7388;51.078;13.740;2023-04-25T05:39:27;8.63;;;6.65;;
14603;SDS011;7388;51.078;13.740;2023-04-25T05:41:53;6.63;;;5.93;;
14603;SDS011;7388;51.078;13.740;2023-04-25T05:44:19;9.63;;;5.67;;
14603;SDS011;7388;51.078;13.740;2023-04-25T05:46:46;10.13;;;6.55;;
14603;SDS011;7388;51.078;13.740;2023-04-25T05:49:12;9.02;;;5.80;;
14603;SDS011;7388;51.078;13.740;2023-04-25T05:51:38;9.80;;;6.27;;
14603;SDS011;7388;51.078;13.740;2023-04-25T05:54:03;7.90;;;5.80;;
14603;SDS011;7388;51.078;13.740;2023-04-25T05:56:29;7.53;;;6.00;;
14603;SDS011;7388;51.078;13.740;2023-04-25T05:58:55;7.47;;;5.73;;
14603;SDS011;7388;51.078;13.740;2023-04-25T06:01:22;7.13;;;6.13;;
14603;SDS011;7388;51.078;13.740;2023-04-25T06:03:48;9.77;;;6.78;;
14603;SDS011;7388;51.078;13.740;2023-04-25T06:06:14;9.37;;;6.17;;
14603;SDS011;7388;51.078;13.740;2023-04-25T06:08:40;6.30;;;5.37;;
14603;SDS011;7388;51.078;13.740;2023-04-25T06:11:05;8.13;;;5.35;;
14603;SDS011;7388;51.078;13.740;2023-04-25T06:13:31;11.43;;;5.77;;
14603;SDS011;7388;51.078;13.740;2023-04-25T06:15:57;10.93;;;5.95;;
14603;SDS011;7388;51.078;13.740;2023-04-25T06:18:23;7.90;;;5.63;;
14603;SDS011;7388;51.078;13.740;2023-04-25T06:20:49;12.53;;;6.10;;
14603;SDS011;7388;51.078;13.740;2023-04-25T06:23:14;8.90;;;6.37;;
14603;SDS011;7388;51.078;13.740;2023-04-25T06:25:40;8.23;;;5.50;;
14603;SDS011;7388;51.078;13.740;2023-04-25T06:28:06;7.70;;;5.40;;
14603;SDS011;7388;51.078;13.740;2023-04-25T06:30:31;8.57;;;6.20;;
14603;SDS011;7388;51.078;13.740;2023-04-25T06:32:57;6.83;;;5.20;;
14603;SDS011;7388;51.078;13.740;2023-04-25T06:35:23;10.67;;;5.13;;
14603;SDS011;7388;51.078;13.740;2023-04-25T06:37:48;11.10;;;5.30;;
14603;SDS011;7388;51.078;13.740;2023-04-25T06:40:14;17.43;;;6.20;;
14603;SDS011;7388;51.078;13.740;2023-04-25T06:42:42;7.50;;;5.75;;
14603;SDS011;7388;51.078;13.740;2023-04-25T06:45:08;10.43;;;5.50;;
14603;SDS011;7388;51.078;13.740;2023-04-25T06:47:34;11.40;;;5.43;;
14603;SDS011;7388;51.078;13.740;2023-04-25T06:49:59;7.90;;;5.10;;
14603;SDS011;7388;51.078;13.740;2023-04-25T06:52:25;16.93;;;6.40;;
14603;SDS011;7388;51.078;13.740;2023-04-25T06:54:51;9.83;;;4.73;;
14603;SDS011;7388;51.078;13.740;2023-04-25T06:57:16;10.70;;;5.90;;
14603;SDS011;7388;51.078;13.740;2023-04-25T06:59:42;7.57;;;4.73;;
14603;SDS011;7388;51.078;13.740;2023-04-25T07:02:08;6.00;;;4.73;;
14603;SDS011;7388;51.078;13.740;2023-04-25T07:04:34;9.00;;;4.40;;
14603;SDS011;7388;51.078;13.740;2023-04-25T07:06:59;7.00;;;4.07;;
14603;SDS011;7388;51.078;13.740;2023-04-25T07:09:27;6.82;;;5.47;;
14603;SDS011;7388;51.078;13.740;2023-04-25T07:11:53;7.03;;;4.03;;
14603;SDS011;7388;51.078;13.740;2023-04-25T07:14:19;4.93;;;4.03;;
14603;SDS011;7388;51.078;13.740;2023-04-25T07:16:45;8.03;;;4.10;;
14603;SDS011;7388;51.078;13.740;2023-04-25T07:19:11;7.20;;;3.50;;
14603;SDS011;7388;51.078;13.740;2023-04-25T07:21:37;4.75;;;3.60;;
14603;SDS011;7388;51.078;13.740;2023-04-25T07:24:03;8.13;;;4.27;;
14603;SDS011;7388;51.078;13.740;2023-04-25T07:26:29;4.68;;;3.53;;
14603;SDS011;7388;51.078;13.740;2023-04-25T07:28:54;5.00;;;4.50;;
14603;SDS011;7388;51.078;13.740;2023-04-25T07:31:21;7.30;;;4.73;;
14603;SDS011;7388;51.078;13.740;2023-04-25T07:33:47;7.50;;;3.97;;
14603;SDS011;7388;51.078;13.740;2023-04-25T07:36:13;5.90;;;4.43;;
14603;SDS011;7388;51.078;13.740;2023-04-25T07:38:40;8.18;;;5.00;;
14603;SDS011;7388;51.078;13.740;2023-04-25T07:41:06;6.83;;;4.50;;
14603;SDS011;7388;51.078;13.740;2023-04-25T07:43:31;4.20;;;3.57;;
14603;SDS011;7388;51.078;13.740;2023-04-25T07:45:57;3.93;;;3.40;;
14603;SDS011;7388;51.078;13.740;2023-04-25T07:48:23;6.13;;;3.60;;
14603;SDS011;7388;51.078;13.740;2023-04-25T07:50:49;9.30;;;4.90;;
14603;SDS011;7388;51.078;13.740;2023-04-25T07:53:15;5.93;;;2.90;;
14603;SDS011;7388;51.078;13.740;2023-04-25T07:55:43;5.53;;;3.90;;
14603;SDS011;7388;51.078;13.740;2023-04-25T07:58:08;5.37;;;3.53;;
14603;SDS011;7388;51.078;13.740;2023-04-25T08:00:35;7.15;;;3.67;;
14603;SDS011;7388;51.078;13.740;2023-04-25T08:03:01;5.10;;;4.50;;
14603;SDS011;7388;51.078;13.740;2023-04-25T08:05:28;5.10;;;3.20;;
14603;SDS011;7388;51.078;13.740;2023-04-25T08:07:54;5.32;;;3.90;;
14603;SDS011;7388;51.078;13.740;2023-04-25T08:10:21;5.13;;;4.40;;
14603;SDS011;7388;51.078;13.740;2023-04-25T08:12:48;8.40;;;3.78;;
14603;SDS011;7388;51.078;13.740;2023-04-25T08:15:14;4.47;;;3.10;;
14603;SDS011;7388;51.078;13.740;2023-04-25T08:17:40;7.43;;;4.67;;
14603;SDS011;7388;51.078;13.740;2023-04-25T08:20:06;7.87;;;4.67;;
14603;SDS011;7388;51.078;13.740;2023-04-25T08:22:32;6.93;;;3.92;;
14603;SDS011;7388;51.078;13.740;2023-04-25T08:24:58;7.43;;;4.60;;
14603;SDS011;7388;51.078;13.740;2023-04-25T08:27:24;6.80;;;4.17;;
14603;SDS011;7388;51.078;13.740;2023-04-25T08:29:50;6.13;;;3.73;;
14603;SDS011;7388;51.078;13.740;2023-04-25T08:32:16;5.30;;;3.37;;
14603;SDS011;7388;51.078;13.740;2023-04-25T08:34:43;12.45;;;3.97;;
14603;SDS011;7388;51.078;13.740;2023-04-25T08:37:09;4.60;;;3.13;;
14603;SDS011;7388;51.078;13.740;2023-04-25T08:39:38;3.60;;;3.30;;
14603;SDS011;7388;51.078;13.740;2023-04-25T08:42:05;9.55;;;4.65;;
14603;SDS011;7388;51.078;13.740;2023-04-25T08:44:35;10.63;;;4.85;;
14603;SDS011;7388;51.078;13.740;2023-04-25T08:47:04;6.53;;;4.37;;
14603;SDS011;7388;51.078;13.740;2023-04-25T08:49:33;9.05;;;5.32;;
14603;SDS011;7388;51.078;13.740;2023-04-25T08:52:00;5.38;;;3.70;;
14603;SDS011;7388;51.078;13.740;2023-04-25T08:54:29;7.00;;;3.58;;
14603;SDS011;7388;51.078;13.740;2023-04-25T08:56:56;4.68;;;2.70;;
14603;SDS011;7388;51.078;13.740;2023-04-25T08:59:25;8.25;;;3.45;;
14603;SDS011;7388;51.078;13.740;2023-04-25T09:01:51;4.20;;;3.80;;
14603;SDS011;7388;51.078;13.740;2023-04-25T09:04:17;4.90;;;4.03;;
14603;SDS011;7388;51.078;13.740;2023-04-25T09:06:44;5.63;;;4.22;;
14603;SDS011;7388;51.078;13.740;2023-04-25T09:09:10;5.90;;;4.50;;
14603;SDS011;7388;51.078;13.740;2023-04-25T09:11:37;5.40;;;4.43;;
14603;SDS011;7388;51.078;13.740;2023-04-25T09:14:13;6.15;;;4.00;;
14603;SDS011;7388;51.078;13.740;2023-04-25T09:19:24;6.15;;;5.15;;
14603;SDS011;7388;51.078;13.740;2023-04-25T09:21:54;8.07;;;5.28;;
14603;SDS011;7388;51.078;13.740;2023-04-25T09:24:31;8.45;;;5.60;;
14603;SDS011;7388;51.078;13.740;2023-04-25T09:27:05;5.43;;;4.40;;
14603;SDS011;7388;51.078;13.740;2023-04-25T09:29:35;6.55;;;5.30;;
14603;SDS011;7388;51.078;13.740;2023-04-25T09:34:46;7.72;;;4.82;;
14603;SDS011;7388;51.078;13.740;2023-04-25T09:37:47;7.57;;;4.97;;
14603;SDS011;7388;51.078;13.740;2023-04-25T09:40:06;6.53;;;6.00;;
14603;SDS011;7388;51.078;13.740;2023-04-25T09:42:33;5.85;;;4.85;;
14603;SDS011;7388;51.078;13.740;2023-04-25T09:45:00;13.57;;;6.18;;
14603;SDS011;7388;51.078;13.740;2023-04-25T09:47:28;8.98;;;6.20;;
14603;SDS011;7388;51.078;13.740;2023-04-25T09:49:54;7.60;;;5.57;;
14603;SDS011;7388;51.078;13.740;2023-04-25T09:52:21;6.00;;;5.50;;
14603;SDS011;7388;51.078;13.740;2023-04-25T09:54:48;8.02;;;5.10;;
14603;SDS011;7388;51.078;13.740;2023-04-25T09:57:15;6.70;;;5.40;;
14603;SDS011;7388;51.078;13.740;2023-04-25T09:59:49;11.63;;;5.28;;
14603;SDS011;7388;51.078;13.740;2023-04-25T10:02:17;5.57;;;4.00;;
14603;SDS011;7388;51.078;13.740;2023-04-25T10:04:47;5.43;;;4.00;;
14603;SDS011;7388;51.078;13.740;2023-04-25T10:07:13;4.93;;;4.43;;
14603;SDS011;7388;51.078;13.740;2023-04-25T10:09:40;6.88;;;4.97;;
14603;SDS011;7388;51.078;13.740;2023-04-25T10:12:07;4.25;;;3.40;;
14603;SDS011;7388;51.078;13.740;2023-04-25T10:14:33;5.32;;;4.10;;
14603;SDS011;7388;51.078;13.740;2023-04-25T10:17:00;5.93;;;3.95;;
14603;SDS011;7388;51.078;13.740;2023-04-25T10:19:26;6.60;;;4.30;;
14603;SDS011;7388;51.078;13.740;2023-04-25T10:24:29;7.53;;;4.60;;
14603;SDS011;7388;51.078;13.740;2023-04-25T10:26:55;4.33;;;3.80;;
14603;SDS011;7388;51.078;13.740;2023-04-25T10:29:22;5.45;;;4.50;;
14603;SDS011;7388;51.078;13.740;2023-04-25T10:31:50;7.68;;;4.00;;
14603;SDS011;7388;51.078;13.740;2023-04-25T10:34:16;5.50;;;4.53;;
14603;SDS011;7388;51.078;13.740;2023-04-25T10:36:42;5.68;;;4.20;;
14603;SDS011;7388;51.078;13.740;2023-04-25T10:39:13;5.20;;;4.25;;
14603;SDS011;7388;51.078;13.740;2023-04-25T10:41:57;6.70;;;5.28;;
14603;SDS011;7388;51.078;13.740;2023-04-25T10:44:27;6.20;;;5.60;;
14603;SDS011;7388;51.078;13.740;2023-04-25T10:46:55;7.40;;;5.90;;
14603;SDS011;7388;51.078;13.740;2023-04-25T10:52:11;9.07;;;5.80;;
14603;SDS011;7388;51.078;13.740;2023-04-25T10:54:47;6.03;;;4.80;;
14603;SDS011;7388;51.078;13.740;2023-04-25T11:00:13;8.38;;;5.13;;
14603;SDS011;7388;51.078;13.740;2023-04-25T11:02:44;6.65;;;5.93;;
14603;SDS011;7388;51.078;13.740;2023-04-25T11:05:10;6.72;;;6.10;;
14603;SDS011;7388;51.078;13.740;2023-04-25T11:08:02;8.43;;;6.30;;
14603;SDS011;7388;51.078;13.740;2023-04-25T11:10:32;6.30;;;5.50;;
14603;SDS011;7388;51.078;13.740;2023-04-25T11:13:00;7.85;;;5.63;;
14603;SDS011;7388;51.078;13.740;2023-04-25T11:15:27;6.88;;;6.20;;
14603;SDS011;7388;51.078;13.740;2023-04-25T11:17:54;8.13;;;4.30;;
14603;SDS011;7388;51.078;13.740;2023-04-25T11:20:20;7.65;;;6.07;;
14603;SDS011;7388;51.078;13.740;2023-04-25T11:22:47;6.25;;;4.10;;
14603;SDS011;7388;51.078;13.740;2023-04-25T11:25:14;12.38;;;5.55;;
14603;SDS011;7388;51.078;13.740;2023-04-25T11:27:51;7.88;;;5.07;;
14603;SDS011;7388;51.078;13.740;2023-04-25T11:30:22;7.22;;;5.00;;
14603;SDS011;7388;51.078;13.740;2023-04-25T11:32:49;10.05;;;4.93;;
14603;SDS011;7388;51.078;13.740;2023-04-25T11:35:18;8.10;;;4.15;;
14603;SDS011;7388;51.078;13.740;2023-04-25T11:37:47;4.18;;;2.55;;
14603;SDS011;7388;51.078;13.740;2023-04-25T11:40:14;3.85;;;2.10;;
14603;SDS011;7388;51.078;13.740;2023-04-25T11:42:44;5.20;;;2.00;;
14603;SDS011;7388;51.078;13.740;2023-04-25T11:45:11;2.97;;;2.00;;
14603;SDS011;7388;51.078;13.740;2023-04-25T11:47:38;6.13;;;1.85;;
14603;SDS011;7388;51.078;13.740;2023-04-25T11:50:05;5.53;;;2.10;;
14603;SDS011;7388;51.078;13.740;2023-04-25T11:52:39;6.22;;;2.90;;
14603;SDS011;7388;51.078;13.740;2023-04-25T11:55:06;2.88;;;2.35;;
14603;SDS011;7388;51.078;13.740;2023-04-25T11:57:38;7.07;;;2.65;;
14603;SDS011;7388;51.078;13.740;2023-04-25T12:00:14;6.25;;;2.60;;
14603;SDS011;7388;51.078;13.740;2023-04-25T12:02:51;3.53;;;2.65;;
14603;SDS011;7388;51.078;13.740;2023-04-25T12:05:17;3.08;;;2.15;;
14603;SDS011;7388;51.078;13.740;2023-04-25T12:07:44;3.05;;;2.55;;
14603;SDS011;7388;51.078;13.740;2023-04-25T12:10:12;7.57;;;2.85;;
14603;SDS011;7388;51.078;13.740;2023-04-25T12:12:42;6.60;;;3.83;;
14603;SDS011;7388;51.078;13.740;2023-04-25T12:15:13;8.88;;;3.83;;
14603;SDS011;7388;51.078;13.740;2023-04-25T12:17:41;5.18;;;2.90;;
14603;SDS011;7388;51.078;13.740;2023-04-25T12:20:10;2.67;;;2.17;;
14603;SDS011;7388;51.078;13.740;2023-04-25T12:22:45;6.18;;;3.25;;
14603;SDS011;7388;51.078;13.740;2023-04-25T12:25:12;4.70;;;2.80;;
14603;SDS011;7388;51.078;13.740;2023-04-25T12:27:42;8.50;;;3.47;;
14603;SDS011;7388;51.078;13.740;2023-04-25T12:30:09;8.00;;;3.22;;
14603;SDS011;7388;51.078;13.740;2023-04-25T12:32:38;16.02;;;4.15;;
14603;SDS011;7388;51.078;13.740;2023-04-25T12:35:05;8.60;;;3.70;;
14603;SDS011;7388;51.078;13.740;2023-04-25T12:37:31;7.85;;;3.92;;
14603;SDS011;7388;51.078;13.740;2023-04-25T12:39:57;8.20;;;4.10;;
14603;SDS011;7388;51.078;13.740;2023-04-25T12:42:22;8.20;;;4.07;;
14603;SDS011;7388;51.078;13.740;2023-04-25T12:44:48;5.87;;;4.00;;
14603;SDS011;7388;51.078;13.740;2023-04-25T12:47:14;8.50;;;4.03;;
14603;SDS011;7388;51.078;13.740;2023-04-25T12:49:40;6.23;;;3.60;;
14603;SDS011;7388;51.078;13.740;2023-04-25T12:52:06;9.48;;;4.75;;
14603;SDS011;7388;51.078;13.740;2023-04-25T12:54:31;5.97;;;3.63;;
14603;SDS011;7388;51.078;13.740;2023-04-25T12:56:57;11.33;;;4.37;;
14603;SDS011;7388;51.078;13.740;2023-04-25T12:59:24;9.05;;;4.30;;
14603;SDS011;7388;51.078;13.740;2023-04-25T13:01:49;5.87;;;3.67;;
14603;SDS011;7388;51.078;13.740;2023-04-25T13:04:15;9.93;;;4.53;;
14603;SDS011;7388;51.078;13.740;2023-04-25T13:06:41;12.60;;;3.80;;
14603;SDS011;7388;51.078;13.740;2023-04-25T13:09:07;7.47;;;4.43;;
14603;SDS011;7388;51.078;13.740;2023-04-25T13:11:33;14.68;;;5.57;;
14603;SDS011;7388;51.078;13.740;2023-04-25T13:13:59;11.33;;;5.10;;
14603;SDS011;7388;51.078;13.740;2023-04-25T13:16:25;8.90;;;5.45;;
14603;SDS011;7388;51.078;13.740;2023-04-25T13:18:51;10.85;;;5.38;;
14603;SDS011;7388;51.078;13.740;2023-04-25T13:21:17;11.07;;;4.40;;
14603;SDS011;7388;51.078;13.740;2023-04-25T13:23:43;9.20;;;5.73;;
14603;SDS011;7388;51.078;13.740;2023-04-25T13:26:09;12.93;;;6.75;;
14603;SDS011;7388;51.078;13.740;2023-04-25T13:28:35;13.23;;;5.30;;
14603;SDS011;7388;51.078;13.740;2023-04-25T13:31:01;12.07;;;5.20;;
14603;SDS011;7388;51.078;13.740;2023-04-25T13:33:27;9.47;;;4.97;;
14603;SDS011;7388;51.078;13.740;2023-04-25T13:35:52;19.77;;;6.57;;
14603;SDS011;7388;51.078;13.740;2023-04-25T13:38:23;10.00;;;5.15;;
14603;SDS011;7388;51.078;13.740;2023-04-25T13:40:53;13.18;;;4.97;;
14603;SDS011;7388;51.078;13.740;2023-04-25T13:43:19;5.90;;;3.40;;
14603;SDS011;7388;51.078;13.740;2023-04-25T13:45:46;12.23;;;5.70;;
14603;SDS011;7388;51.078;13.740;2023-04-25T13:48:13;9.48;;;4.68;;
14603;SDS011;7388;51.078;13.740;2023-04-25T13:50:39;6.60;;;4.97;;
14603;SDS011;7388;51.078;13.740;2023-04-25T13:53:05;7.47;;;4.03;;
14603;SDS011;7388;51.078;13.740;2023-04-25T13:55:30;12.30;;;4.50;;
14603;SDS011;7388;51.078;13.740;2023-04-25T13:57:56;18.63;;;4.80;;
14603;SDS011;7388;51.078;13.740;2023-04-25T14:00:22;9.43;;;5.03;;
14603;SDS011;7388;51.078;13.740;2023-04-25T14:02:48;8.63;;;4.70;;
14603;SDS011;7388;51.078;13.740;2023-04-25T14:05:14;12.65;;;5.38;;
14603;SDS011;7388;51.078;13.740;2023-04-25T14:07:40;8.97;;;5.10;;
14603;SDS011;7388;51.078;13.740;2023-04-25T14:10:06;11.83;;;6.57;;
14603;SDS011;7388;51.078;13.740;2023-04-25T14:12:32;9.57;;;3.90;;
14603;SDS011;7388;51.078;13.740;2023-04-25T14:14:58;8.40;;;4.25;;
14603;SDS011;7388;51.078;13.740;2023-04-25T14:17:24;12.67;;;6.00;;
14603;SDS011;7388;51.078;13.740;2023-04-25T14:19:50;9.87;;;4.70;;
14603;SDS011;7388;51.078;13.740;2023-04-25T14:22:15;16.00;;;5.10;;
14603;SDS011;7388;51.078;13.740;2023-04-25T14:24:41;12.17;;;6.20;;
14603;SDS011;7388;51.078;13.740;2023-04-25T14:27:07;9.70;;;5.37;;
14603;SDS011;7388;51.078;13.740;2023-04-25T14:29:33;7.57;;;3.97;;
14603;SDS011;7388;51.078;13.740;2023-04-25T14:32:00;8.77;;;4.78;;
14603;SDS011;7388;51.078;13.740;2023-04-25T14:34:25;10.10;;;4.03;;
14603;SDS011;7388;51.078;13.740;2023-04-25T14:36:51;8.50;;;5.27;;
14603;SDS011;7388;51.078;13.740;2023-04-25T14:39:17;9.68;;;4.97;;
14603;SDS011;7388;51.078;13.740;2023-04-25T14:41:44;8.27;;;3.90;;
14603;SDS011;7388;51.078;13.740;2023-04-25T14:44:10;9.18;;;4.82;;
14603;SDS011;7388;51.078;13.740;2023-04-25T14:46:36;8.27;;;4.50;;
14603;SDS011;7388;51.078;13.740;2023-04-25T14:49:02;8.30;;;4.70;;
14603;SDS011;7388;51.078;13.740;2023-04-25T14:51:28;9.10;;;5.05;;
14603;SDS011;7388;51.078;13.740;2023-04-25T14:53:56;13.13;;;4.95;;
14603;SDS011;7388;51.078;13.740;2023-04-25T14:56:22;14.68;;;5.32;;
14603;SDS011;7388;51.078;13.740;2023-04-25T14:58:47;8.13;;;4.63;;
14603;SDS011;7388;51.078;13.740;2023-04-25T15:01:13;10.53;;;4.40;;